Elwood, IN

3:44 AM EDT on August 30, 2016 (GMT -0400)
APRSWXNET | | Change Station

Elev 810 ft 40.49 °N, 86.15 °W | Updated 1 day ago

Partly Cloudy
Partly Cloudy
68 °F
Feels Like 68 °F
N
2
Wind Variable Wind from East
Gusts mph

Today
High -- | Low -- °F
--% Chance of Precip.
Yesterday
High -- | Low -- °F
Precip. -- in
Pressure 30.20 in
Visibility 5.0 miles
Clouds Clear
Dew Point 67 °F
Humidity 95%
Rainfall in
Snow Depth Not available.
7:09 AM 8:17 PM
Waning Crescent, 5% visible
METAR KMZZ 300735Z AUTO 00000KT 5SM BR CLR 21/20 A3020 RMK AO2 T02060195
Pressure 30.20 in
Visibility 5.0 miles
Clouds Clear
Dew Point 67 °F
Humidity 95%
Rainfall in
Snow Depth Not available.
7:09 AM 8:17 PM
Waning Crescent, 5% visible
METAR KMZZ 300735Z AUTO 00000KT 5SM BR CLR 21/20 A3020 RMK AO2 T02060195

10-Day Weather Forecast

Almanac

Astronomy

Aug. 30, 2016 Rise Set
Actual Time
Civil Twilight
Nautical Twilight
Astronomical Twilight
Moon
Length of Visible Light
Length of Day
Tomorrow will be .
, % of the Moon is Illuminated

Today's Extremes

State Highs State Lows

Community

WunderPhotos

Upload Photos

1,935,795 photos uploaded!

WunderBlog® & News

Nearby

Air Quality

  Air Quality AQ Index Pollutant
Not available.

Snow Depth

Station Depth Elevation

Earthquake Activity

City Distance Mag. Time & Date
Minimum magnitude displayed is 2.5.

Coastal Water Temperatures

Place Temperature

Stations

Nearby Weather Stations

Station Location Temp. Windchill Dew Point Humidity Wind Precip. Elev Updated Type
                   

Watches & Warnings

There are currently no watches in effect.